<?xml version="1.0" encoding="UTF-8" standalone="no" ?>
<gpx xmlns="http://www.topografix.com/GPX/1/1" xmlns:xsi="http://www.w3.org/2001/XMLSchema-instance" xsi:schemaLocation="http://www.topografix.com/GPX/1/1 http://www.topografix.com/GPX/1/1/gpx.xsd" version="1.1" creator="VisuGPX - https://www.visugpx.com">
  <metadata>
    <name>rando-montee-au-sancy-cote-mont-dore</name>
  </metadata>
  <trk>
    <name><![CDATA[rando-montee-au-sancy-cote-mont-dore]]></name>
    <extensions>
      <line xmlns="http://www.topografix.com/GPX/gpx_style/0/2">
        <color>0000FF</color>
        <width>4</width>
      </line>
    </extensions>
    <trkseg>
      <trkpt lat="45.54276" lon="2.81782">
        <ele>1315</ele>
        <time>2020-06-05T22:54:20.000Z</time>
      </trkpt>
      <trkpt lat="45.54273" lon="2.81778">
        <ele>1315</ele>
        <time>2020-06-05T22:54:21.000Z</time>
      </trkpt>
      <trkpt lat="45.54268" lon="2.81772">
        <ele>1315</ele>
        <time>2020-06-05T22:54:22.000Z</time>
      </trkpt>
      <trkpt lat="45.54168" lon="2.8182">
        <ele>1335</ele>
        <time>2020-06-05T22:54:23.000Z</time>
      </trkpt>
      <trkpt lat="45.54151" lon="2.81816">
        <ele>1335</ele>
        <time>2020-06-05T22:54:24.000Z</time>
      </trkpt>
      <trkpt lat="45.54146" lon="2.8181">
        <ele>1335</ele>
        <time>2020-06-05T22:54:25.000Z</time>
      </trkpt>
      <trkpt lat="45.54143" lon="2.81803">
        <ele>1335</ele>
        <time>2020-06-05T22:54:26.000Z</time>
      </trkpt>
      <trkpt lat="45.54136" lon="2.81771">
        <ele>1323</ele>
        <time>2020-06-05T22:54:27.000Z</time>
      </trkpt>
      <trkpt lat="45.54131" lon="2.81745">
        <ele>1323</ele>
        <time>2020-06-05T22:54:28.000Z</time>
      </trkpt>
      <trkpt lat="45.5413" lon="2.81742">
        <ele>1323</ele>
        <time>2020-06-05T22:54:29.000Z</time>
      </trkpt>
      <trkpt lat="45.54131" lon="2.81738">
        <ele>1323</ele>
        <time>2020-06-05T22:54:30.000Z</time>
      </trkpt>
      <trkpt lat="45.54131" lon="2.81738">
        <ele>1323</ele>
        <time>2020-06-05T22:54:31.000Z</time>
      </trkpt>
      <trkpt lat="45.54131" lon="2.81738">
        <ele>1323</ele>
        <time>2020-06-05T22:54:32.000Z</time>
      </trkpt>
      <trkpt lat="45.5413" lon="2.81731">
        <ele>1323</ele>
        <time>2020-06-05T22:54:33.000Z</time>
      </trkpt>
      <trkpt lat="45.54129" lon="2.81724">
        <ele>1323</ele>
        <time>2020-06-05T22:54:34.000Z</time>
      </trkpt>
      <trkpt lat="45.54127" lon="2.81717">
        <ele>1323</ele>
        <time>2020-06-05T22:54:35.000Z</time>
      </trkpt>
      <trkpt lat="45.54123" lon="2.81713">
        <ele>1333</ele>
        <time>2020-06-05T22:54:36.000Z</time>
      </trkpt>
      <trkpt lat="45.54119" lon="2.8171">
        <ele>1333</ele>
        <time>2020-06-05T22:54:37.000Z</time>
      </trkpt>
      <trkpt lat="45.54114" lon="2.81709">
        <ele>1333</ele>
        <time>2020-06-05T22:54:38.000Z</time>
      </trkpt>
      <trkpt lat="45.54109" lon="2.8171">
        <ele>1333</ele>
        <time>2020-06-05T22:54:39.000Z</time>
      </trkpt>
      <trkpt lat="45.54109" lon="2.8171">
        <ele>1333</ele>
        <time>2020-06-05T22:54:40.000Z</time>
      </trkpt>
      <trkpt lat="45.54104" lon="2.81713">
        <ele>1333</ele>
        <time>2020-06-05T22:54:41.000Z</time>
      </trkpt>
      <trkpt lat="45.54098" lon="2.81716">
        <ele>1333</ele>
        <time>2020-06-05T22:54:42.000Z</time>
      </trkpt>
      <trkpt lat="45.54093" lon="2.81719">
        <ele>1333</ele>
        <time>2020-06-05T22:54:43.000Z</time>
      </trkpt>
      <trkpt lat="45.5409" lon="2.8172">
        <ele>1333</ele>
        <time>2020-06-05T22:54:44.000Z</time>
      </trkpt>
      <trkpt lat="45.5409" lon="2.8172">
        <ele>1333</ele>
        <time>2020-06-05T22:54:45.000Z</time>
      </trkpt>
      <trkpt lat="45.54085" lon="2.81723">
        <ele>1333</ele>
        <time>2020-06-05T22:54:46.000Z</time>
      </trkpt>
      <trkpt lat="45.54081" lon="2.81726">
        <ele>1333</ele>
        <time>2020-06-05T22:54:47.000Z</time>
      </trkpt>
      <trkpt lat="45.54066" lon="2.8174">
        <ele>1333</ele>
        <time>2020-06-05T22:54:48.000Z</time>
      </trkpt>
      <trkpt lat="45.54008" lon="2.81764">
        <ele>1343</ele>
        <time>2020-06-05T22:54:49.000Z</time>
      </trkpt>
      <trkpt lat="45.5396" lon="2.81785">
        <ele>1343</ele>
        <time>2020-06-05T22:54:50.000Z</time>
      </trkpt>
      <trkpt lat="45.53932" lon="2.81799">
        <ele>1355</ele>
        <time>2020-06-05T22:54:51.000Z</time>
      </trkpt>
      <trkpt lat="45.53918" lon="2.81814">
        <ele>1355</ele>
        <time>2020-06-05T22:54:52.000Z</time>
      </trkpt>
      <trkpt lat="45.53915" lon="2.81821">
        <ele>1355</ele>
        <time>2020-06-05T22:54:53.000Z</time>
      </trkpt>
      <trkpt lat="45.53913" lon="2.81825">
        <ele>1355</ele>
        <time>2020-06-05T22:54:54.000Z</time>
      </trkpt>
      <trkpt lat="45.53909" lon="2.81836">
        <ele>1355</ele>
        <time>2020-06-05T22:54:55.000Z</time>
      </trkpt>
      <trkpt lat="45.53906" lon="2.81843">
        <ele>1355</ele>
        <time>2020-06-05T22:54:56.000Z</time>
      </trkpt>
      <trkpt lat="45.539" lon="2.81861">
        <ele>1355</ele>
        <time>2020-06-05T22:54:57.000Z</time>
      </trkpt>
      <trkpt lat="45.53903" lon="2.81881">
        <ele>1374</ele>
        <time>2020-06-05T22:54:58.000Z</time>
      </trkpt>
      <trkpt lat="45.53902" lon="2.8188">
        <ele>1374</ele>
        <time>2020-06-05T22:54:59.000Z</time>
      </trkpt>
      <trkpt lat="45.53884" lon="2.81868">
        <ele>1355</ele>
        <time>2020-06-05T22:55:00.000Z</time>
      </trkpt>
      <trkpt lat="45.53877" lon="2.81862">
        <ele>1355</ele>
        <time>2020-06-05T22:55:01.000Z</time>
      </trkpt>
      <trkpt lat="45.53872" lon="2.81859">
        <ele>1365</ele>
        <time>2020-06-05T22:55:02.000Z</time>
      </trkpt>
      <trkpt lat="45.53872" lon="2.81858">
        <ele>1365</ele>
        <time>2020-06-05T22:55:03.000Z</time>
      </trkpt>
      <trkpt lat="45.53872" lon="2.81858">
        <ele>1365</ele>
        <time>2020-06-05T22:55:04.000Z</time>
      </trkpt>
      <trkpt lat="45.53872" lon="2.81859">
        <ele>1365</ele>
        <time>2020-06-05T22:55:05.000Z</time>
      </trkpt>
      <trkpt lat="45.53871" lon="2.81859">
        <ele>1365</ele>
        <time>2020-06-05T22:55:06.000Z</time>
      </trkpt>
      <trkpt lat="45.5387" lon="2.8186">
        <ele>1365</ele>
        <time>2020-06-05T22:55:07.000Z</time>
      </trkpt>
      <trkpt lat="45.53868" lon="2.81861">
        <ele>1365</ele>
        <time>2020-06-05T22:55:08.000Z</time>
      </trkpt>
      <trkpt lat="45.53866" lon="2.81861">
        <ele>1365</ele>
        <time>2020-06-05T22:55:09.000Z</time>
      </trkpt>
      <trkpt lat="45.53858" lon="2.81862">
        <ele>1365</ele>
        <time>2020-06-05T22:55:10.000Z</time>
      </trkpt>
      <trkpt lat="45.53857" lon="2.81863">
        <ele>1365</ele>
        <time>2020-06-05T22:55:11.000Z</time>
      </trkpt>
      <trkpt lat="45.53853" lon="2.81864">
        <ele>1365</ele>
        <time>2020-06-05T22:55:12.000Z</time>
      </trkpt>
      <trkpt lat="45.53852" lon="2.81865">
        <ele>1365</ele>
        <time>2020-06-05T22:55:13.000Z</time>
      </trkpt>
      <trkpt lat="45.53849" lon="2.81867">
        <ele>1365</ele>
        <time>2020-06-05T22:55:14.000Z</time>
      </trkpt>
      <trkpt lat="45.53844" lon="2.8187">
        <ele>1365</ele>
        <time>2020-06-05T22:55:15.000Z</time>
      </trkpt>
      <trkpt lat="45.5384" lon="2.81866">
        <ele>1365</ele>
        <time>2020-06-05T22:55:16.000Z</time>
      </trkpt>
      <trkpt lat="45.53838" lon="2.8186">
        <ele>1365</ele>
        <time>2020-06-05T22:55:17.000Z</time>
      </trkpt>
      <trkpt lat="45.53837" lon="2.81853">
        <ele>1365</ele>
        <time>2020-06-05T22:55:18.000Z</time>
      </trkpt>
      <trkpt lat="45.53831" lon="2.81854">
        <ele>1365</ele>
        <time>2020-06-05T22:55:19.000Z</time>
      </trkpt>
      <trkpt lat="45.53827" lon="2.81855">
        <ele>1365</ele>
        <time>2020-06-05T22:55:20.000Z</time>
      </trkpt>
      <trkpt lat="45.53822" lon="2.81857">
        <ele>1365</ele>
        <time>2020-06-05T22:55:21.000Z</time>
      </trkpt>
      <trkpt lat="45.53818" lon="2.81861">
        <ele>1365</ele>
        <time>2020-06-05T22:55:22.000Z</time>
      </trkpt>
      <trkpt lat="45.53813" lon="2.81865">
        <ele>1365</ele>
        <time>2020-06-05T22:55:23.000Z</time>
      </trkpt>
      <trkpt lat="45.53808" lon="2.81866">
        <ele>1365</ele>
        <time>2020-06-05T22:55:24.000Z</time>
      </trkpt>
      <trkpt lat="45.53804" lon="2.81871">
        <ele>1365</ele>
        <time>2020-06-05T22:55:25.000Z</time>
      </trkpt>
      <trkpt lat="45.53803" lon="2.81879">
        <ele>1387</ele>
        <time>2020-06-05T22:55:26.000Z</time>
      </trkpt>
      <trkpt lat="45.53803" lon="2.81886">
        <ele>1387</ele>
        <time>2020-06-05T22:55:27.000Z</time>
      </trkpt>
      <trkpt lat="45.53803" lon="2.81893">
        <ele>1387</ele>
        <time>2020-06-05T22:55:28.000Z</time>
      </trkpt>
      <trkpt lat="45.53802" lon="2.819">
        <ele>1387</ele>
        <time>2020-06-05T22:55:29.000Z</time>
      </trkpt>
      <trkpt lat="45.53804" lon="2.81906">
        <ele>1387</ele>
        <time>2020-06-05T22:55:30.000Z</time>
      </trkpt>
      <trkpt lat="45.53809" lon="2.81909">
        <ele>1387</ele>
        <time>2020-06-05T22:55:31.000Z</time>
      </trkpt>
      <trkpt lat="45.53814" lon="2.81909">
        <ele>1387</ele>
        <time>2020-06-05T22:55:32.000Z</time>
      </trkpt>
      <trkpt lat="45.53818" lon="2.81905">
        <ele>1387</ele>
        <time>2020-06-05T22:55:33.000Z</time>
      </trkpt>
      <trkpt lat="45.53823" lon="2.81902">
        <ele>1387</ele>
        <time>2020-06-05T22:55:34.000Z</time>
      </trkpt>
      <trkpt lat="45.53827" lon="2.81902">
        <ele>1387</ele>
        <time>2020-06-05T22:55:35.000Z</time>
      </trkpt>
      <trkpt lat="45.53832" lon="2.81902">
        <ele>1387</ele>
        <time>2020-06-05T22:55:36.000Z</time>
      </trkpt>
      <trkpt lat="45.53838" lon="2.81906">
        <ele>1387</ele>
        <time>2020-06-05T22:55:37.000Z</time>
      </trkpt>
      <trkpt lat="45.53843" lon="2.81906">
        <ele>1387</ele>
        <time>2020-06-05T22:55:38.000Z</time>
      </trkpt>
      <trkpt lat="45.53848" lon="2.8191">
        <ele>1387</ele>
        <time>2020-06-05T22:55:39.000Z</time>
      </trkpt>
      <trkpt lat="45.53845" lon="2.81916">
        <ele>1387</ele>
        <time>2020-06-05T22:55:40.000Z</time>
      </trkpt>
      <trkpt lat="45.53844" lon="2.81922">
        <ele>1387</ele>
        <time>2020-06-05T22:55:41.000Z</time>
      </trkpt>
      <trkpt lat="45.53846" lon="2.81928">
        <ele>1387</ele>
        <time>2020-06-05T22:55:42.000Z</time>
      </trkpt>
      <trkpt lat="45.5385" lon="2.81931">
        <ele>1387</ele>
        <time>2020-06-05T22:55:43.000Z</time>
      </trkpt>
      <trkpt lat="45.53849" lon="2.81938">
        <ele>1387</ele>
        <time>2020-06-05T22:55:44.000Z</time>
      </trkpt>
      <trkpt lat="45.53849" lon="2.81945">
        <ele>1387</ele>
        <time>2020-06-05T22:55:45.000Z</time>
      </trkpt>
      <trkpt lat="45.53851" lon="2.81951">
        <ele>1387</ele>
        <time>2020-06-05T22:55:46.000Z</time>
      </trkpt>
      <trkpt lat="45.53854" lon="2.81959">
        <ele>1411</ele>
        <time>2020-06-05T22:55:47.000Z</time>
      </trkpt>
      <trkpt lat="45.53854" lon="2.81967">
        <ele>1411</ele>
        <time>2020-06-05T22:55:48.000Z</time>
      </trkpt>
      <trkpt lat="45.53851" lon="2.81971">
        <ele>1411</ele>
        <time>2020-06-05T22:55:49.000Z</time>
      </trkpt>
      <trkpt lat="45.53845" lon="2.81969">
        <ele>1411</ele>
        <time>2020-06-05T22:55:50.000Z</time>
      </trkpt>
      <trkpt lat="45.53841" lon="2.81972">
        <ele>1411</ele>
        <time>2020-06-05T22:55:51.000Z</time>
      </trkpt>
      <trkpt lat="45.53843" lon="2.81978">
        <ele>1411</ele>
        <time>2020-06-05T22:55:52.000Z</time>
      </trkpt>
      <trkpt lat="45.53845" lon="2.81984">
        <ele>1411</ele>
        <time>2020-06-05T22:55:53.000Z</time>
      </trkpt>
      <trkpt lat="45.53842" lon="2.81989">
        <ele>1411</ele>
        <time>2020-06-05T22:55:54.000Z</time>
      </trkpt>
      <trkpt lat="45.53836" lon="2.81994">
        <ele>1411</ele>
        <time>2020-06-05T22:55:55.000Z</time>
      </trkpt>
      <trkpt lat="45.53839" lon="2.82">
        <ele>1411</ele>
        <time>2020-06-05T22:55:56.000Z</time>
      </trkpt>
      <trkpt lat="45.53843" lon="2.82004">
        <ele>1411</ele>
        <time>2020-06-05T22:55:57.000Z</time>
      </trkpt>
      <trkpt lat="45.53846" lon="2.82011">
        <ele>1411</ele>
        <time>2020-06-05T22:55:58.000Z</time>
      </trkpt>
      <trkpt lat="45.53849" lon="2.82017">
        <ele>1411</ele>
        <time>2020-06-05T22:55:59.000Z</time>
      </trkpt>
      <trkpt lat="45.53853" lon="2.8202">
        <ele>1411</ele>
        <time>2020-06-05T22:56:00.000Z</time>
      </trkpt>
      <trkpt lat="45.53858" lon="2.82024">
        <ele>1411</ele>
        <time>2020-06-05T22:56:01.000Z</time>
      </trkpt>
      <trkpt lat="45.53862" lon="2.82028">
        <ele>1411</ele>
        <time>2020-06-05T22:56:02.000Z</time>
      </trkpt>
      <trkpt lat="45.53866" lon="2.82031">
        <ele>1411</ele>
        <time>2020-06-05T22:56:03.000Z</time>
      </trkpt>
      <trkpt lat="45.53871" lon="2.82034">
        <ele>1411</ele>
        <time>2020-06-05T22:56:04.000Z</time>
      </trkpt>
      <trkpt lat="45.53876" lon="2.82035">
        <ele>1401</ele>
        <time>2020-06-05T22:56:05.000Z</time>
      </trkpt>
      <trkpt lat="45.53881" lon="2.82036">
        <ele>1401</ele>
        <time>2020-06-05T22:56:06.000Z</time>
      </trkpt>
      <trkpt lat="45.53886" lon="2.82037">
        <ele>1401</ele>
        <time>2020-06-05T22:56:07.000Z</time>
      </trkpt>
      <trkpt lat="45.53883" lon="2.82044">
        <ele>1432</ele>
        <time>2020-06-05T22:56:08.000Z</time>
      </trkpt>
      <trkpt lat="45.53878" lon="2.82048">
        <ele>1432</ele>
        <time>2020-06-05T22:56:09.000Z</time>
      </trkpt>
      <trkpt lat="45.53875" lon="2.82052">
        <ele>1438</ele>
        <time>2020-06-05T22:56:10.000Z</time>
      </trkpt>
      <trkpt lat="45.5387" lon="2.82055">
        <ele>1438</ele>
        <time>2020-06-05T22:56:11.000Z</time>
      </trkpt>
      <trkpt lat="45.53866" lon="2.82056">
        <ele>1438</ele>
        <time>2020-06-05T22:56:12.000Z</time>
      </trkpt>
      <trkpt lat="45.53863" lon="2.82058">
        <ele>1438</ele>
        <time>2020-06-05T22:56:13.000Z</time>
      </trkpt>
      <trkpt lat="45.53863" lon="2.82059">
        <ele>1438</ele>
        <time>2020-06-05T22:56:14.000Z</time>
      </trkpt>
      <trkpt lat="45.53831" lon="2.82066">
        <ele>1438</ele>
        <time>2020-06-05T22:56:15.000Z</time>
      </trkpt>
      <trkpt lat="45.53819" lon="2.82065">
        <ele>1438</ele>
        <time>2020-06-05T22:56:16.000Z</time>
      </trkpt>
      <trkpt lat="45.53806" lon="2.82065">
        <ele>1438</ele>
        <time>2020-06-05T22:56:17.000Z</time>
      </trkpt>
      <trkpt lat="45.53776" lon="2.82059">
        <ele>1451</ele>
        <time>2020-06-05T22:56:18.000Z</time>
      </trkpt>
      <trkpt lat="45.5376" lon="2.82059">
        <ele>1451</ele>
        <time>2020-06-05T22:56:19.000Z</time>
      </trkpt>
      <trkpt lat="45.53758" lon="2.82061">
        <ele>1451</ele>
        <time>2020-06-05T22:56:20.000Z</time>
      </trkpt>
      <trkpt lat="45.53753" lon="2.8207">
        <ele>1451</ele>
        <time>2020-06-05T22:56:21.000Z</time>
      </trkpt>
      <trkpt lat="45.53751" lon="2.82081">
        <ele>1451</ele>
        <time>2020-06-05T22:56:22.000Z</time>
      </trkpt>
      <trkpt lat="45.5376" lon="2.82089">
        <ele>1451</ele>
        <time>2020-06-05T22:56:23.000Z</time>
      </trkpt>
      <trkpt lat="45.53778" lon="2.821">
        <ele>1451</ele>
        <time>2020-06-05T22:56:24.000Z</time>
      </trkpt>
      <trkpt lat="45.53779" lon="2.82098">
        <ele>1451</ele>
        <time>2020-06-05T22:56:25.000Z</time>
      </trkpt>
      <trkpt lat="45.53778" lon="2.821">
        <ele>1451</ele>
        <time>2020-06-05T22:56:26.000Z</time>
      </trkpt>
      <trkpt lat="45.53784" lon="2.82104">
        <ele>1451</ele>
        <time>2020-06-05T22:56:27.000Z</time>
      </trkpt>
      <trkpt lat="45.53805" lon="2.82117">
        <ele>1438</ele>
        <time>2020-06-05T22:56:28.000Z</time>
      </trkpt>
      <trkpt lat="45.5383" lon="2.82137">
        <ele>1475</ele>
        <time>2020-06-05T22:56:29.000Z</time>
      </trkpt>
      <trkpt lat="45.53832" lon="2.82138">
        <ele>1475</ele>
        <time>2020-06-05T22:56:30.000Z</time>
      </trkpt>
      <trkpt lat="45.53849" lon="2.82151">
        <ele>1475</ele>
        <time>2020-06-05T22:56:31.000Z</time>
      </trkpt>
      <trkpt lat="45.53871" lon="2.82161">
        <ele>1475</ele>
        <time>2020-06-05T22:56:32.000Z</time>
      </trkpt>
      <trkpt lat="45.53878" lon="2.82161">
        <ele>1469</ele>
        <time>2020-06-05T22:56:33.000Z</time>
      </trkpt>
      <trkpt lat="45.53893" lon="2.82162">
        <ele>1469</ele>
        <time>2020-06-05T22:56:34.000Z</time>
      </trkpt>
      <trkpt lat="45.53907" lon="2.82167">
        <ele>1469</ele>
        <time>2020-06-05T22:56:35.000Z</time>
      </trkpt>
      <trkpt lat="45.5393" lon="2.82187">
        <ele>1469</ele>
        <time>2020-06-05T22:56:36.000Z</time>
      </trkpt>
      <trkpt lat="45.53941" lon="2.82209">
        <ele>1486</ele>
        <time>2020-06-05T22:56:37.000Z</time>
      </trkpt>
      <trkpt lat="45.53945" lon="2.82225">
        <ele>1486</ele>
        <time>2020-06-05T22:56:38.000Z</time>
      </trkpt>
      <trkpt lat="45.53945" lon="2.82242">
        <ele>1486</ele>
        <time>2020-06-05T22:56:39.000Z</time>
      </trkpt>
      <trkpt lat="45.53946" lon="2.82255">
        <ele>1486</ele>
        <time>2020-06-05T22:56:40.000Z</time>
      </trkpt>
      <trkpt lat="45.53944" lon="2.8229">
        <ele>1486</ele>
        <time>2020-06-05T22:56:41.000Z</time>
      </trkpt>
      <trkpt lat="45.53942" lon="2.82316">
        <ele>1494</ele>
        <time>2020-06-05T22:56:42.000Z</time>
      </trkpt>
      <trkpt lat="45.53936" lon="2.82345">
        <ele>1494</ele>
        <time>2020-06-05T22:56:43.000Z</time>
      </trkpt>
      <trkpt lat="45.53924" lon="2.82358">
        <ele>1494</ele>
        <time>2020-06-05T22:56:44.000Z</time>
      </trkpt>
      <trkpt lat="45.53915" lon="2.82359">
        <ele>1494</ele>
        <time>2020-06-05T22:56:45.000Z</time>
      </trkpt>
      <trkpt lat="45.53908" lon="2.82355">
        <ele>1494</ele>
        <time>2020-06-05T22:56:46.000Z</time>
      </trkpt>
      <trkpt lat="45.53901" lon="2.82348">
        <ele>1494</ele>
        <time>2020-06-05T22:56:47.000Z</time>
      </trkpt>
      <trkpt lat="45.53886" lon="2.82331">
        <ele>1494</ele>
        <time>2020-06-05T22:56:48.000Z</time>
      </trkpt>
      <trkpt lat="45.53881" lon="2.82324">
        <ele>1494</ele>
        <time>2020-06-05T22:56:49.000Z</time>
      </trkpt>
      <trkpt lat="45.53854" lon="2.82292">
        <ele>1519</ele>
        <time>2020-06-05T22:56:50.000Z</time>
      </trkpt>
      <trkpt lat="45.53838" lon="2.82272">
        <ele>1501</ele>
        <time>2020-06-05T22:56:51.000Z</time>
      </trkpt>
      <trkpt lat="45.53823" lon="2.82259">
        <ele>1501</ele>
        <time>2020-06-05T22:56:52.000Z</time>
      </trkpt>
      <trkpt lat="45.53812" lon="2.82255">
        <ele>1501</ele>
        <time>2020-06-05T22:56:53.000Z</time>
      </trkpt>
      <trkpt lat="45.53801" lon="2.82252">
        <ele>1501</ele>
        <time>2020-06-05T22:56:54.000Z</time>
      </trkpt>
      <trkpt lat="45.53794" lon="2.82251">
        <ele>1501</ele>
        <time>2020-06-05T22:56:55.000Z</time>
      </trkpt>
      <trkpt lat="45.53767" lon="2.82247">
        <ele>1521</ele>
        <time>2020-06-05T22:56:56.000Z</time>
      </trkpt>
      <trkpt lat="45.53738" lon="2.82251">
        <ele>1521</ele>
        <time>2020-06-05T22:56:57.000Z</time>
      </trkpt>
      <trkpt lat="45.53718" lon="2.82262">
        <ele>1521</ele>
        <time>2020-06-05T22:56:58.000Z</time>
      </trkpt>
      <trkpt lat="45.53713" lon="2.82265">
        <ele>1521</ele>
        <time>2020-06-05T22:56:59.000Z</time>
      </trkpt>
      <trkpt lat="45.53677" lon="2.82289">
        <ele>1525</ele>
        <time>2020-06-05T22:57:00.000Z</time>
      </trkpt>
      <trkpt lat="45.53645" lon="2.82313">
        <ele>1555</ele>
        <time>2020-06-05T22:57:01.000Z</time>
      </trkpt>
      <trkpt lat="45.53627" lon="2.82327">
        <ele>1555</ele>
        <time>2020-06-05T22:57:02.000Z</time>
      </trkpt>
      <trkpt lat="45.536" lon="2.82347">
        <ele>1551</ele>
        <time>2020-06-05T22:57:03.000Z</time>
      </trkpt>
      <trkpt lat="45.53572" lon="2.82363">
        <ele>1551</ele>
        <time>2020-06-05T22:57:04.000Z</time>
      </trkpt>
      <trkpt lat="45.53544" lon="2.82378">
        <ele>1583</ele>
        <time>2020-06-05T22:57:05.000Z</time>
      </trkpt>
      <trkpt lat="45.53521" lon="2.82382">
        <ele>1591</ele>
        <time>2020-06-05T22:57:06.000Z</time>
      </trkpt>
      <trkpt lat="45.53506" lon="2.82385">
        <ele>1591</ele>
        <time>2020-06-05T22:57:07.000Z</time>
      </trkpt>
      <trkpt lat="45.53471" lon="2.82386">
        <ele>1591</ele>
        <time>2020-06-05T22:57:08.000Z</time>
      </trkpt>
      <trkpt lat="45.53444" lon="2.82378">
        <ele>1616</ele>
        <time>2020-06-05T22:57:09.000Z</time>
      </trkpt>
      <trkpt lat="45.53418" lon="2.82365">
        <ele>1594</ele>
        <time>2020-06-05T22:57:10.000Z</time>
      </trkpt>
      <trkpt lat="45.53385" lon="2.82352">
        <ele>1594</ele>
        <time>2020-06-05T22:57:11.000Z</time>
      </trkpt>
      <trkpt lat="45.53361" lon="2.82348">
        <ele>1626</ele>
        <time>2020-06-05T22:57:12.000Z</time>
      </trkpt>
      <trkpt lat="45.53333" lon="2.82343">
        <ele>1626</ele>
        <time>2020-06-05T22:57:13.000Z</time>
      </trkpt>
      <trkpt lat="45.53316" lon="2.82334">
        <ele>1626</ele>
        <time>2020-06-05T22:57:14.000Z</time>
      </trkpt>
      <trkpt lat="45.53312" lon="2.82313">
        <ele>1626</ele>
        <time>2020-06-05T22:57:15.000Z</time>
      </trkpt>
      <trkpt lat="45.53309" lon="2.82303">
        <ele>1626</ele>
        <time>2020-06-05T22:57:16.000Z</time>
      </trkpt>
      <trkpt lat="45.53304" lon="2.82288">
        <ele>1627</ele>
        <time>2020-06-05T22:57:17.000Z</time>
      </trkpt>
      <trkpt lat="45.53291" lon="2.82254">
        <ele>1648</ele>
        <time>2020-06-05T22:57:18.000Z</time>
      </trkpt>
      <trkpt lat="45.5329" lon="2.82253">
        <ele>1648</ele>
        <time>2020-06-05T22:57:19.000Z</time>
      </trkpt>
      <trkpt lat="45.53268" lon="2.82226">
        <ele>1648</ele>
        <time>2020-06-05T22:57:20.000Z</time>
      </trkpt>
      <trkpt lat="45.53253" lon="2.82188">
        <ele>1651</ele>
        <time>2020-06-05T22:57:21.000Z</time>
      </trkpt>
      <trkpt lat="45.53237" lon="2.82126">
        <ele>1651</ele>
        <time>2020-06-05T22:57:22.000Z</time>
      </trkpt>
      <trkpt lat="45.53226" lon="2.82056">
        <ele>1654</ele>
        <time>2020-06-05T22:57:23.000Z</time>
      </trkpt>
      <trkpt lat="45.53223" lon="2.82045">
        <ele>1654</ele>
        <time>2020-06-05T22:57:24.000Z</time>
      </trkpt>
      <trkpt lat="45.53215" lon="2.82013">
        <ele>1653</ele>
        <time>2020-06-05T22:57:25.000Z</time>
      </trkpt>
      <trkpt lat="45.53197" lon="2.81994">
        <ele>1663</ele>
        <time>2020-06-05T22:57:26.000Z</time>
      </trkpt>
      <trkpt lat="45.5319" lon="2.8199">
        <ele>1663</ele>
        <time>2020-06-05T22:57:27.000Z</time>
      </trkpt>
      <trkpt lat="45.53177" lon="2.81982">
        <ele>1663</ele>
        <time>2020-06-05T22:57:28.000Z</time>
      </trkpt>
      <trkpt lat="45.53172" lon="2.81985">
        <ele>1663</ele>
        <time>2020-06-05T22:57:29.000Z</time>
      </trkpt>
      <trkpt lat="45.53173" lon="2.81991">
        <ele>1663</ele>
        <time>2020-06-05T22:57:30.000Z</time>
      </trkpt>
      <trkpt lat="45.53173" lon="2.82002">
        <ele>1663</ele>
        <time>2020-06-05T22:57:31.000Z</time>
      </trkpt>
      <trkpt lat="45.53177" lon="2.82016">
        <ele>1663</ele>
        <time>2020-06-05T22:57:32.000Z</time>
      </trkpt>
      <trkpt lat="45.53173" lon="2.82014">
        <ele>1663</ele>
        <time>2020-06-05T22:57:33.000Z</time>
      </trkpt>
      <trkpt lat="45.53156" lon="2.82004">
        <ele>1663</ele>
        <time>2020-06-05T22:57:34.000Z</time>
      </trkpt>
      <trkpt lat="45.53138" lon="2.82003">
        <ele>1663</ele>
        <time>2020-06-05T22:57:35.000Z</time>
      </trkpt>
      <trkpt lat="45.53112" lon="2.82001">
        <ele>1679</ele>
        <time>2020-06-05T22:57:36.000Z</time>
      </trkpt>
      <trkpt lat="45.53076" lon="2.81999">
        <ele>1679</ele>
        <time>2020-06-05T22:57:37.000Z</time>
      </trkpt>
      <trkpt lat="45.53042" lon="2.81999">
        <ele>1679</ele>
        <time>2020-06-05T22:57:38.000Z</time>
      </trkpt>
      <trkpt lat="45.53031" lon="2.82003">
        <ele>1691</ele>
        <time>2020-06-05T22:57:39.000Z</time>
      </trkpt>
      <trkpt lat="45.53021" lon="2.82006">
        <ele>1691</ele>
        <time>2020-06-05T22:57:40.000Z</time>
      </trkpt>
      <trkpt lat="45.53003" lon="2.82025">
        <ele>1691</ele>
        <time>2020-06-05T22:57:41.000Z</time>
      </trkpt>
      <trkpt lat="45.52996" lon="2.82031">
        <ele>1691</ele>
        <time>2020-06-05T22:57:42.000Z</time>
      </trkpt>
      <trkpt lat="45.52983" lon="2.82042">
        <ele>1691</ele>
        <time>2020-06-05T22:57:43.000Z</time>
      </trkpt>
      <trkpt lat="45.52931" lon="2.82074">
        <ele>1717</ele>
        <time>2020-06-05T22:57:44.000Z</time>
      </trkpt>
      <trkpt lat="45.52885" lon="2.82108">
        <ele>1717</ele>
        <time>2020-06-05T22:57:45.000Z</time>
      </trkpt>
      <trkpt lat="45.52881" lon="2.82109">
        <ele>1717</ele>
        <time>2020-06-05T22:57:46.000Z</time>
      </trkpt>
      <trkpt lat="45.52867" lon="2.82111">
        <ele>1721</ele>
        <time>2020-06-05T22:57:47.000Z</time>
      </trkpt>
      <trkpt lat="45.52859" lon="2.82113">
        <ele>1721</ele>
        <time>2020-06-05T22:57:48.000Z</time>
      </trkpt>
      <trkpt lat="45.5286" lon="2.82123">
        <ele>1721</ele>
        <time>2020-06-05T22:57:49.000Z</time>
      </trkpt>
      <trkpt lat="45.52858" lon="2.82138">
        <ele>1728</ele>
        <time>2020-06-05T22:57:50.000Z</time>
      </trkpt>
      <trkpt lat="45.52856" lon="2.82143">
        <ele>1728</ele>
        <time>2020-06-05T22:57:51.000Z</time>
      </trkpt>
      <trkpt lat="45.52852" lon="2.82149">
        <ele>1728</ele>
        <time>2020-06-05T22:57:52.000Z</time>
      </trkpt>
      <trkpt lat="45.52846" lon="2.82154">
        <ele>1728</ele>
        <time>2020-06-05T22:57:53.000Z</time>
      </trkpt>
      <trkpt lat="45.52837" lon="2.82149">
        <ele>1728</ele>
        <time>2020-06-05T22:57:54.000Z</time>
      </trkpt>
      <trkpt lat="45.52829" lon="2.82137">
        <ele>1728</ele>
        <time>2020-06-05T22:57:55.000Z</time>
      </trkpt>
      <trkpt lat="45.52823" lon="2.8212">
        <ele>1721</ele>
        <time>2020-06-05T22:57:56.000Z</time>
      </trkpt>
      <trkpt lat="45.52811" lon="2.82111">
        <ele>1721</ele>
        <time>2020-06-05T22:57:57.000Z</time>
      </trkpt>
      <trkpt lat="45.52808" lon="2.82102">
        <ele>1721</ele>
        <time>2020-06-05T22:57:58.000Z</time>
      </trkpt>
      <trkpt lat="45.52803" lon="2.82089">
        <ele>1721</ele>
        <time>2020-06-05T22:57:59.000Z</time>
      </trkpt>
      <trkpt lat="45.52787" lon="2.82006">
        <ele>1756</ele>
        <time>2020-06-05T22:58:00.000Z</time>
      </trkpt>
      <trkpt lat="45.52782" lon="2.8197">
        <ele>1756</ele>
        <time>2020-06-05T22:58:01.000Z</time>
      </trkpt>
      <trkpt lat="45.52781" lon="2.81965">
        <ele>1756</ele>
        <time>2020-06-05T22:58:02.000Z</time>
      </trkpt>
      <trkpt lat="45.5278" lon="2.81951">
        <ele>1767</ele>
        <time>2020-06-05T22:58:03.000Z</time>
      </trkpt>
      <trkpt lat="45.52781" lon="2.81936">
        <ele>1767</ele>
        <time>2020-06-05T22:58:04.000Z</time>
      </trkpt>
      <trkpt lat="45.52778" lon="2.81926">
        <ele>1767</ele>
        <time>2020-06-05T22:58:05.000Z</time>
      </trkpt>
      <trkpt lat="45.52774" lon="2.81925">
        <ele>1767</ele>
        <time>2020-06-05T22:58:06.000Z</time>
      </trkpt>
      <trkpt lat="45.52768" lon="2.81929">
        <ele>1767</ele>
        <time>2020-06-05T22:58:07.000Z</time>
      </trkpt>
      <trkpt lat="45.52746" lon="2.81957">
        <ele>1767</ele>
        <time>2020-06-05T22:58:08.000Z</time>
      </trkpt>
      <trkpt lat="45.5274" lon="2.81957">
        <ele>1767</ele>
        <time>2020-06-05T22:58:09.000Z</time>
      </trkpt>
      <trkpt lat="45.52739" lon="2.81955">
        <ele>1767</ele>
        <time>2020-06-05T22:58:10.000Z</time>
      </trkpt>
      <trkpt lat="45.52737" lon="2.81942">
        <ele>1767</ele>
        <time>2020-06-05T22:58:11.000Z</time>
      </trkpt>
      <trkpt lat="45.52748" lon="2.81904">
        <ele>1767</ele>
        <time>2020-06-05T22:58:12.000Z</time>
      </trkpt>
      <trkpt lat="45.52742" lon="2.81812">
        <ele>1773</ele>
        <time>2020-06-05T22:58:13.000Z</time>
      </trkpt>
      <trkpt lat="45.52741" lon="2.8179">
        <ele>1776</ele>
        <time>2020-06-05T22:58:14.000Z</time>
      </trkpt>
      <trkpt lat="45.52738" lon="2.81784">
        <ele>1776</ele>
        <time>2020-06-05T22:58:15.000Z</time>
      </trkpt>
      <trkpt lat="45.52734" lon="2.81772">
        <ele>1776</ele>
        <time>2020-06-05T22:58:16.000Z</time>
      </trkpt>
      <trkpt lat="45.52734" lon="2.81771">
        <ele>1776</ele>
        <time>2020-06-05T22:58:17.000Z</time>
      </trkpt>
      <trkpt lat="45.52733" lon="2.81764">
        <ele>1776</ele>
        <time>2020-06-05T22:58:18.000Z</time>
      </trkpt>
      <trkpt lat="45.52731" lon="2.8174">
        <ele>1776</ele>
        <time>2020-06-05T22:58:19.000Z</time>
      </trkpt>
      <trkpt lat="45.52733" lon="2.8173">
        <ele>1776</ele>
        <time>2020-06-05T22:58:20.000Z</time>
      </trkpt>
      <trkpt lat="45.52746" lon="2.81705">
        <ele>1782</ele>
        <time>2020-06-05T22:58:21.000Z</time>
      </trkpt>
      <trkpt lat="45.52752" lon="2.81682">
        <ele>1782</ele>
        <time>2020-06-05T22:58:22.000Z</time>
      </trkpt>
      <trkpt lat="45.52752" lon="2.81663">
        <ele>1782</ele>
        <time>2020-06-05T22:58:23.000Z</time>
      </trkpt>
      <trkpt lat="45.52747" lon="2.81639">
        <ele>1782</ele>
        <time>2020-06-05T22:58:24.000Z</time>
      </trkpt>
      <trkpt lat="45.52749" lon="2.8163">
        <ele>1782</ele>
        <time>2020-06-05T22:58:25.000Z</time>
      </trkpt>
      <trkpt lat="45.5275" lon="2.81623">
        <ele>1801</ele>
        <time>2020-06-05T22:58:26.000Z</time>
      </trkpt>
      <trkpt lat="45.52757" lon="2.81612">
        <ele>1801</ele>
        <time>2020-06-05T22:58:27.000Z</time>
      </trkpt>
      <trkpt lat="45.52777" lon="2.81604">
        <ele>1801</ele>
        <time>2020-06-05T22:58:28.000Z</time>
      </trkpt>
      <trkpt lat="45.52778" lon="2.81599">
        <ele>1801</ele>
        <time>2020-06-05T22:58:29.000Z</time>
      </trkpt>
      <trkpt lat="45.52771" lon="2.81586">
        <ele>1801</ele>
        <time>2020-06-05T22:58:30.000Z</time>
      </trkpt>
      <trkpt lat="45.52769" lon="2.8157">
        <ele>1801</ele>
        <time>2020-06-05T22:58:31.000Z</time>
      </trkpt>
      <trkpt lat="45.5277" lon="2.81562">
        <ele>1801</ele>
        <time>2020-06-05T22:58:32.000Z</time>
      </trkpt>
      <trkpt lat="45.52767" lon="2.81552">
        <ele>1801</ele>
        <time>2020-06-05T22:58:33.000Z</time>
      </trkpt>
      <trkpt lat="45.52757" lon="2.81516">
        <ele>1822</ele>
        <time>2020-06-05T22:58:34.000Z</time>
      </trkpt>
      <trkpt lat="45.52757" lon="2.81515">
        <ele>1822</ele>
        <time>2020-06-05T22:58:35.000Z</time>
      </trkpt>
      <trkpt lat="45.52755" lon="2.81501">
        <ele>1822</ele>
        <time>2020-06-05T22:58:36.000Z</time>
      </trkpt>
      <trkpt lat="45.52756" lon="2.81493">
        <ele>1822</ele>
        <time>2020-06-05T22:58:37.000Z</time>
      </trkpt>
      <trkpt lat="45.52759" lon="2.81489">
        <ele>1822</ele>
        <time>2020-06-05T22:58:38.000Z</time>
      </trkpt>
      <trkpt lat="45.52777" lon="2.81506">
        <ele>1822</ele>
        <time>2020-06-05T22:58:39.000Z</time>
      </trkpt>
      <trkpt lat="45.52778" lon="2.81507">
        <ele>1822</ele>
        <time>2020-06-05T22:58:40.000Z</time>
      </trkpt>
      <trkpt lat="45.52779" lon="2.81505">
        <ele>1822</ele>
        <time>2020-06-05T22:58:41.000Z</time>
      </trkpt>
      <trkpt lat="45.52776" lon="2.81492">
        <ele>1822</ele>
        <time>2020-06-05T22:58:42.000Z</time>
      </trkpt>
      <trkpt lat="45.52771" lon="2.81466">
        <ele>1822</ele>
        <time>2020-06-05T22:58:43.000Z</time>
      </trkpt>
      <trkpt lat="45.52772" lon="2.81464">
        <ele>1822</ele>
        <time>2020-06-05T22:58:44.000Z</time>
      </trkpt>
      <trkpt lat="45.52772" lon="2.81458">
        <ele>1822</ele>
        <time>2020-06-05T22:58:45.000Z</time>
      </trkpt>
      <trkpt lat="45.52775" lon="2.81456">
        <ele>1835</ele>
        <time>2020-06-05T22:58:46.000Z</time>
      </trkpt>
      <trkpt lat="45.52784" lon="2.81461">
        <ele>1822</ele>
        <time>2020-06-05T22:58:47.000Z</time>
      </trkpt>
      <trkpt lat="45.52792" lon="2.81463">
        <ele>1822</ele>
        <time>2020-06-05T22:58:48.000Z</time>
      </trkpt>
      <trkpt lat="45.52796" lon="2.8146">
        <ele>1838</ele>
        <time>2020-06-05T22:58:49.000Z</time>
      </trkpt>
      <trkpt lat="45.52802" lon="2.81455">
        <ele>1856</ele>
        <time>2020-06-05T22:58:50.000Z</time>
      </trkpt>
      <trkpt lat="45.52805" lon="2.81449">
        <ele>1856</ele>
        <time>2020-06-05T22:58:51.000Z</time>
      </trkpt>
      <trkpt lat="45.528" lon="2.81444">
        <ele>1856</ele>
        <time>2020-06-05T22:58:52.000Z</time>
      </trkpt>
      <trkpt lat="45.52798" lon="2.81429">
        <ele>1856</ele>
        <time>2020-06-05T22:58:53.000Z</time>
      </trkpt>
      <trkpt lat="45.52797" lon="2.81423">
        <ele>1856</ele>
        <time>2020-06-05T22:58:54.000Z</time>
      </trkpt>
      <trkpt lat="45.52798" lon="2.81417">
        <ele>1856</ele>
        <time>2020-06-05T22:58:55.000Z</time>
      </trkpt>
      <trkpt lat="45.52799" lon="2.81411">
        <ele>1856</ele>
        <time>2020-06-05T22:58:56.000Z</time>
      </trkpt>
      <trkpt lat="45.52806" lon="2.81403">
        <ele>1856</ele>
        <time>2020-06-05T22:58:57.000Z</time>
      </trkpt>
      <trkpt lat="45.52808" lon="2.81403">
        <ele>1856</ele>
        <time>2020-06-05T22:58:58.000Z</time>
      </trkpt>
      <trkpt lat="45.52812" lon="2.81401">
        <ele>1856</ele>
        <time>2020-06-05T22:58:59.000Z</time>
      </trkpt>
      <trkpt lat="45.52818" lon="2.8139">
        <ele>1856</ele>
        <time>2020-06-05T22:59:00.000Z</time>
      </trkpt>
      <trkpt lat="45.52821" lon="2.81398">
        <ele>1856</ele>
        <time>2020-06-05T22:59:01.000Z</time>
      </trkpt>
      <trkpt lat="45.52818" lon="2.8139">
        <ele>1856</ele>
        <time>2020-06-05T22:59:02.000Z</time>
      </trkpt>
      <trkpt lat="45.52819" lon="2.81389">
        <ele>1856</ele>
        <time>2020-06-05T22:59:03.000Z</time>
      </trkpt>
      <trkpt lat="45.52822" lon="2.81387">
        <ele>1856</ele>
        <time>2020-06-05T22:59:04.000Z</time>
      </trkpt>
      <trkpt lat="45.52828" lon="2.81383">
        <ele>1856</ele>
        <time>2020-06-05T22:59:05.000Z</time>
      </trkpt>
      <trkpt lat="45.52835" lon="2.81375">
        <ele>1856</ele>
        <time>2020-06-05T22:59:06.000Z</time>
      </trkpt>
      <trkpt lat="45.52846" lon="2.81371">
        <ele>1849</ele>
        <time>2020-06-05T22:59:07.000Z</time>
      </trkpt>
      <trkpt lat="45.52851" lon="2.81365">
        <ele>1849</ele>
        <time>2020-06-05T22:59:08.000Z</time>
      </trkpt>
      <trkpt lat="45.52856" lon="2.8136">
        <ele>1849</ele>
        <time>2020-06-05T22:59:09.000Z</time>
      </trkpt>
      <trkpt lat="45.52868" lon="2.81342">
        <ele>1849</ele>
        <time>2020-06-05T22:59:10.000Z</time>
      </trkpt>
      <trkpt lat="45.52879" lon="2.81327">
        <ele>1831</ele>
        <time>2020-06-05T22:59:11.000Z</time>
      </trkpt>
      <trkpt lat="45.52883" lon="2.81322">
        <ele>1831</ele>
        <time>2020-06-05T22:59:12.000Z</time>
      </trkpt>
      <trkpt lat="45.52893" lon="2.81313">
        <ele>1831</ele>
        <time>2020-06-05T22:59:13.000Z</time>
      </trkpt>
      <trkpt lat="45.52901" lon="2.81305">
        <ele>1831</ele>
        <time>2020-06-05T22:59:14.000Z</time>
      </trkpt>
      <trkpt lat="45.52911" lon="2.81299">
        <ele>1831</ele>
        <time>2020-06-05T22:59:15.000Z</time>
      </trkpt>
      <trkpt lat="45.52916" lon="2.81297">
        <ele>1831</ele>
        <time>2020-06-05T22:59:16.000Z</time>
      </trkpt>
      <trkpt lat="45.52921" lon="2.81294">
        <ele>1831</ele>
        <time>2020-06-05T22:59:17.000Z</time>
      </trkpt>
      <trkpt lat="45.52923" lon="2.81293">
        <ele>1831</ele>
        <time>2020-06-05T22:59:18.000Z</time>
      </trkpt>
      <trkpt lat="45.52924" lon="2.81292">
        <ele>1831</ele>
        <time>2020-06-05T22:59:19.000Z</time>
      </trkpt>
      <trkpt lat="45.52925" lon="2.8129">
        <ele>1815</ele>
        <time>2020-06-05T22:59:20.000Z</time>
      </trkpt>
      <trkpt lat="45.52927" lon="2.81286">
        <ele>1815</ele>
        <time>2020-06-05T22:59:21.000Z</time>
      </trkpt>
      <trkpt lat="45.52937" lon="2.81263">
        <ele>1815</ele>
        <time>2020-06-05T22:59:22.000Z</time>
      </trkpt>
      <trkpt lat="45.5294" lon="2.81257">
        <ele>1815</ele>
        <time>2020-06-05T22:59:23.000Z</time>
      </trkpt>
      <trkpt lat="45.52944" lon="2.81251">
        <ele>1815</ele>
        <time>2020-06-05T22:59:24.000Z</time>
      </trkpt>
      <trkpt lat="45.52963" lon="2.81222">
        <ele>1797</ele>
        <time>2020-06-05T22:59:25.000Z</time>
      </trkpt>
      <trkpt lat="45.52986" lon="2.8119">
        <ele>1802</ele>
        <time>2020-06-05T22:59:26.000Z</time>
      </trkpt>
      <trkpt lat="45.52987" lon="2.81188">
        <ele>1802</ele>
        <time>2020-06-05T22:59:27.000Z</time>
      </trkpt>
      <trkpt lat="45.52994" lon="2.81176">
        <ele>1802</ele>
        <time>2020-06-05T22:59:28.000Z</time>
      </trkpt>
      <trkpt lat="45.52997" lon="2.81169">
        <ele>1802</ele>
        <time>2020-06-05T22:59:29.000Z</time>
      </trkpt>
      <trkpt lat="45.53005" lon="2.81163">
        <ele>1802</ele>
        <time>2020-06-05T22:59:30.000Z</time>
      </trkpt>
      <trkpt lat="45.53018" lon="2.81158">
        <ele>1802</ele>
        <time>2020-06-05T22:59:31.000Z</time>
      </trkpt>
      <trkpt lat="45.53033" lon="2.81148">
        <ele>1802</ele>
        <time>2020-06-05T22:59:32.000Z</time>
      </trkpt>
      <trkpt lat="45.53037" lon="2.81136">
        <ele>1802</ele>
        <time>2020-06-05T22:59:33.000Z</time>
      </trkpt>
      <trkpt lat="45.53042" lon="2.8112">
        <ele>1786</ele>
        <time>2020-06-05T22:59:34.000Z</time>
      </trkpt>
      <trkpt lat="45.53042" lon="2.8112">
        <ele>1786</ele>
        <time>2020-06-05T22:59:35.000Z</time>
      </trkpt>
      <trkpt lat="45.53042" lon="2.81109">
        <ele>1786</ele>
        <time>2020-06-05T22:59:36.000Z</time>
      </trkpt>
      <trkpt lat="45.53041" lon="2.81098">
        <ele>1786</ele>
        <time>2020-06-05T22:59:37.000Z</time>
      </trkpt>
      <trkpt lat="45.53046" lon="2.81086">
        <ele>1786</ele>
        <time>2020-06-05T22:59:38.000Z</time>
      </trkpt>
      <trkpt lat="45.53046" lon="2.81072">
        <ele>1786</ele>
        <time>2020-06-05T22:59:39.000Z</time>
      </trkpt>
      <trkpt lat="45.53043" lon="2.81061">
        <ele>1786</ele>
        <time>2020-06-05T22:59:40.000Z</time>
      </trkpt>
      <trkpt lat="45.53036" lon="2.81044">
        <ele>1786</ele>
        <time>2020-06-05T22:59:41.000Z</time>
      </trkpt>
      <trkpt lat="45.53035" lon="2.81026">
        <ele>1770</ele>
        <time>2020-06-05T22:59:42.000Z</time>
      </trkpt>
      <trkpt lat="45.53031" lon="2.81013">
        <ele>1770</ele>
        <time>2020-06-05T22:59:43.000Z</time>
      </trkpt>
      <trkpt lat="45.53029" lon="2.81005">
        <ele>1770</ele>
        <time>2020-06-05T22:59:44.000Z</time>
      </trkpt>
      <trkpt lat="45.53025" lon="2.80996">
        <ele>1770</ele>
        <time>2020-06-05T22:59:45.000Z</time>
      </trkpt>
      <trkpt lat="45.53023" lon="2.80988">
        <ele>1770</ele>
        <time>2020-06-05T22:59:46.000Z</time>
      </trkpt>
      <trkpt lat="45.53025" lon="2.80976">
        <ele>1770</ele>
        <time>2020-06-05T22:59:47.000Z</time>
      </trkpt>
      <trkpt lat="45.53035" lon="2.80965">
        <ele>1770</ele>
        <time>2020-06-05T22:59:48.000Z</time>
      </trkpt>
      <trkpt lat="45.53042" lon="2.80958">
        <ele>1768</ele>
        <time>2020-06-05T22:59:49.000Z</time>
      </trkpt>
      <trkpt lat="45.53052" lon="2.8094">
        <ele>1768</ele>
        <time>2020-06-05T22:59:50.000Z</time>
      </trkpt>
      <trkpt lat="45.5306" lon="2.80917">
        <ele>1768</ele>
        <time>2020-06-05T22:59:51.000Z</time>
      </trkpt>
      <trkpt lat="45.5307" lon="2.809">
        <ele>1768</ele>
        <time>2020-06-05T22:59:52.000Z</time>
      </trkpt>
      <trkpt lat="45.53076" lon="2.80893">
        <ele>1768</ele>
        <time>2020-06-05T22:59:53.000Z</time>
      </trkpt>
      <trkpt lat="45.5308" lon="2.80881">
        <ele>1768</ele>
        <time>2020-06-05T22:59:54.000Z</time>
      </trkpt>
      <trkpt lat="45.53089" lon="2.80869">
        <ele>1759</ele>
        <time>2020-06-05T22:59:55.000Z</time>
      </trkpt>
      <trkpt lat="45.53088" lon="2.80855">
        <ele>1759</ele>
        <time>2020-06-05T22:59:56.000Z</time>
      </trkpt>
      <trkpt lat="45.53093" lon="2.80843">
        <ele>1759</ele>
        <time>2020-06-05T22:59:57.000Z</time>
      </trkpt>
      <trkpt lat="45.53092" lon="2.80832">
        <ele>1759</ele>
        <time>2020-06-05T22:59:58.000Z</time>
      </trkpt>
      <trkpt lat="45.53091" lon="2.80824">
        <ele>1759</ele>
        <time>2020-06-05T22:59:59.000Z</time>
      </trkpt>
      <trkpt lat="45.53096" lon="2.80802">
        <ele>1759</ele>
        <time>2020-06-05T23:00:00.000Z</time>
      </trkpt>
      <trkpt lat="45.53099" lon="2.80796">
        <ele>1759</ele>
        <time>2020-06-05T23:00:01.000Z</time>
      </trkpt>
      <trkpt lat="45.531" lon="2.80782">
        <ele>1735</ele>
        <time>2020-06-05T23:00:02.000Z</time>
      </trkpt>
      <trkpt lat="45.531" lon="2.80775">
        <ele>1735</ele>
        <time>2020-06-05T23:00:03.000Z</time>
      </trkpt>
      <trkpt lat="45.53103" lon="2.80763">
        <ele>1735</ele>
        <time>2020-06-05T23:00:04.000Z</time>
      </trkpt>
      <trkpt lat="45.53107" lon="2.80752">
        <ele>1735</ele>
        <time>2020-06-05T23:00:05.000Z</time>
      </trkpt>
      <trkpt lat="45.53112" lon="2.8075">
        <ele>1735</ele>
        <time>2020-06-05T23:00:06.000Z</time>
      </trkpt>
      <trkpt lat="45.53123" lon="2.80751">
        <ele>1735</ele>
        <time>2020-06-05T23:00:07.000Z</time>
      </trkpt>
      <trkpt lat="45.53129" lon="2.80751">
        <ele>1732</ele>
        <time>2020-06-05T23:00:08.000Z</time>
      </trkpt>
      <trkpt lat="45.53139" lon="2.8075">
        <ele>1732</ele>
        <time>2020-06-05T23:00:09.000Z</time>
      </trkpt>
      <trkpt lat="45.53143" lon="2.80743">
        <ele>1732</ele>
        <time>2020-06-05T23:00:10.000Z</time>
      </trkpt>
      <trkpt lat="45.53147" lon="2.80727">
        <ele>1732</ele>
        <time>2020-06-05T23:00:11.000Z</time>
      </trkpt>
      <trkpt lat="45.53144" lon="2.80723">
        <ele>1732</ele>
        <time>2020-06-05T23:00:12.000Z</time>
      </trkpt>
      <trkpt lat="45.5314" lon="2.80716">
        <ele>1732</ele>
        <time>2020-06-05T23:00:13.000Z</time>
      </trkpt>
      <trkpt lat="45.53146" lon="2.80707">
        <ele>1736</ele>
        <time>2020-06-05T23:00:14.000Z</time>
      </trkpt>
      <trkpt lat="45.53147" lon="2.80684">
        <ele>1736</ele>
        <time>2020-06-05T23:00:15.000Z</time>
      </trkpt>
      <trkpt lat="45.5315" lon="2.80635">
        <ele>1736</ele>
        <time>2020-06-05T23:00:16.000Z</time>
      </trkpt>
      <trkpt lat="45.53152" lon="2.80586">
        <ele>1724</ele>
        <time>2020-06-05T23:00:17.000Z</time>
      </trkpt>
      <trkpt lat="45.53155" lon="2.80565">
        <ele>1724</ele>
        <time>2020-06-05T23:00:18.000Z</time>
      </trkpt>
      <trkpt lat="45.53154" lon="2.80541">
        <ele>1708</ele>
        <time>2020-06-05T23:00:19.000Z</time>
      </trkpt>
      <trkpt lat="45.53156" lon="2.80525">
        <ele>1708</ele>
        <time>2020-06-05T23:00:20.000Z</time>
      </trkpt>
      <trkpt lat="45.53171" lon="2.80497">
        <ele>1708</ele>
        <time>2020-06-05T23:00:21.000Z</time>
      </trkpt>
      <trkpt lat="45.53174" lon="2.80484">
        <ele>1708</ele>
        <time>2020-06-05T23:00:22.000Z</time>
      </trkpt>
      <trkpt lat="45.53176" lon="2.80465">
        <ele>1708</ele>
        <time>2020-06-05T23:00:23.000Z</time>
      </trkpt>
      <trkpt lat="45.53182" lon="2.80445">
        <ele>1698</ele>
        <time>2020-06-05T23:00:24.000Z</time>
      </trkpt>
      <trkpt lat="45.53181" lon="2.80431">
        <ele>1698</ele>
        <time>2020-06-05T23:00:25.000Z</time>
      </trkpt>
      <trkpt lat="45.53183" lon="2.80426">
        <ele>1698</ele>
        <time>2020-06-05T23:00:26.000Z</time>
      </trkpt>
      <trkpt lat="45.53185" lon="2.8042">
        <ele>1698</ele>
        <time>2020-06-05T23:00:27.000Z</time>
      </trkpt>
      <trkpt lat="45.53188" lon="2.80422">
        <ele>1698</ele>
        <time>2020-06-05T23:00:28.000Z</time>
      </trkpt>
      <trkpt lat="45.53195" lon="2.80426">
        <ele>1698</ele>
        <time>2020-06-05T23:00:29.000Z</time>
      </trkpt>
      <trkpt lat="45.53198" lon="2.80438">
        <ele>1698</ele>
        <time>2020-06-05T23:00:30.000Z</time>
      </trkpt>
      <trkpt lat="45.53202" lon="2.80446">
        <ele>1698</ele>
        <time>2020-06-05T23:00:31.000Z</time>
      </trkpt>
      <trkpt lat="45.53207" lon="2.80452">
        <ele>1698</ele>
        <time>2020-06-05T23:00:32.000Z</time>
      </trkpt>
      <trkpt lat="45.53209" lon="2.80456">
        <ele>1682</ele>
        <time>2020-06-05T23:00:33.000Z</time>
      </trkpt>
      <trkpt lat="45.53211" lon="2.80458">
        <ele>1682</ele>
        <time>2020-06-05T23:00:34.000Z</time>
      </trkpt>
      <trkpt lat="45.53215" lon="2.80458">
        <ele>1682</ele>
        <time>2020-06-05T23:00:35.000Z</time>
      </trkpt>
      <trkpt lat="45.53224" lon="2.80459">
        <ele>1710</ele>
        <time>2020-06-05T23:00:36.000Z</time>
      </trkpt>
      <trkpt lat="45.53232" lon="2.80459">
        <ele>1710</ele>
        <time>2020-06-05T23:00:37.000Z</time>
      </trkpt>
      <trkpt lat="45.53231" lon="2.80454">
        <ele>1682</ele>
        <time>2020-06-05T23:00:38.000Z</time>
      </trkpt>
      <trkpt lat="45.53227" lon="2.80447">
        <ele>1682</ele>
        <time>2020-06-05T23:00:39.000Z</time>
      </trkpt>
      <trkpt lat="45.53223" lon="2.80442">
        <ele>1682</ele>
        <time>2020-06-05T23:00:40.000Z</time>
      </trkpt>
      <trkpt lat="45.53221" lon="2.80436">
        <ele>1682</ele>
        <time>2020-06-05T23:00:41.000Z</time>
      </trkpt>
      <trkpt lat="45.53221" lon="2.80434">
        <ele>1682</ele>
        <time>2020-06-05T23:00:42.000Z</time>
      </trkpt>
      <trkpt lat="45.53225" lon="2.80432">
        <ele>1682</ele>
        <time>2020-06-05T23:00:43.000Z</time>
      </trkpt>
      <trkpt lat="45.53228" lon="2.80435">
        <ele>1682</ele>
        <time>2020-06-05T23:00:44.000Z</time>
      </trkpt>
      <trkpt lat="45.53233" lon="2.80436">
        <ele>1682</ele>
        <time>2020-06-05T23:00:45.000Z</time>
      </trkpt>
      <trkpt lat="45.53238" lon="2.80436">
        <ele>1682</ele>
        <time>2020-06-05T23:00:46.000Z</time>
      </trkpt>
      <trkpt lat="45.53241" lon="2.80437">
        <ele>1682</ele>
        <time>2020-06-05T23:00:47.000Z</time>
      </trkpt>
      <trkpt lat="45.53245" lon="2.80437">
        <ele>1682</ele>
        <time>2020-06-05T23:00:48.000Z</time>
      </trkpt>
      <trkpt lat="45.53242" lon="2.80428">
        <ele>1682</ele>
        <time>2020-06-05T23:00:49.000Z</time>
      </trkpt>
      <trkpt lat="45.5324" lon="2.80422">
        <ele>1682</ele>
        <time>2020-06-05T23:00:50.000Z</time>
      </trkpt>
      <trkpt lat="45.53242" lon="2.80415">
        <ele>1682</ele>
        <time>2020-06-05T23:00:51.000Z</time>
      </trkpt>
      <trkpt lat="45.53249" lon="2.80414">
        <ele>1682</ele>
        <time>2020-06-05T23:00:52.000Z</time>
      </trkpt>
      <trkpt lat="45.53255" lon="2.80415">
        <ele>1682</ele>
        <time>2020-06-05T23:00:53.000Z</time>
      </trkpt>
      <trkpt lat="45.53261" lon="2.80416">
        <ele>1682</ele>
        <time>2020-06-05T23:00:54.000Z</time>
      </trkpt>
      <trkpt lat="45.53261" lon="2.8041">
        <ele>1682</ele>
        <time>2020-06-05T23:00:55.000Z</time>
      </trkpt>
      <trkpt lat="45.53262" lon="2.80401">
        <ele>1682</ele>
        <time>2020-06-05T23:00:56.000Z</time>
      </trkpt>
      <trkpt lat="45.53264" lon="2.80394">
        <ele>1682</ele>
        <time>2020-06-05T23:00:57.000Z</time>
      </trkpt>
      <trkpt lat="45.53268" lon="2.80387">
        <ele>1682</ele>
        <time>2020-06-05T23:00:58.000Z</time>
      </trkpt>
      <trkpt lat="45.53276" lon="2.80377">
        <ele>1682</ele>
        <time>2020-06-05T23:00:59.000Z</time>
      </trkpt>
      <trkpt lat="45.53283" lon="2.80371">
        <ele>1687</ele>
        <time>2020-06-05T23:01:00.000Z</time>
      </trkpt>
      <trkpt lat="45.53286" lon="2.80364">
        <ele>1687</ele>
        <time>2020-06-05T23:01:01.000Z</time>
      </trkpt>
      <trkpt lat="45.5329" lon="2.80357">
        <ele>1687</ele>
        <time>2020-06-05T23:01:02.000Z</time>
      </trkpt>
      <trkpt lat="45.53296" lon="2.8035">
        <ele>1637</ele>
        <time>2020-06-05T23:01:03.000Z</time>
      </trkpt>
      <trkpt lat="45.53301" lon="2.80343">
        <ele>1637</ele>
        <time>2020-06-05T23:01:04.000Z</time>
      </trkpt>
      <trkpt lat="45.53302" lon="2.80338">
        <ele>1637</ele>
        <time>2020-06-05T23:01:05.000Z</time>
      </trkpt>
      <trkpt lat="45.53304" lon="2.80332">
        <ele>1637</ele>
        <time>2020-06-05T23:01:06.000Z</time>
      </trkpt>
      <trkpt lat="45.53306" lon="2.80331">
        <ele>1637</ele>
        <time>2020-06-05T23:01:07.000Z</time>
      </trkpt>
      <trkpt lat="45.53309" lon="2.80328">
        <ele>1637</ele>
        <time>2020-06-05T23:01:08.000Z</time>
      </trkpt>
      <trkpt lat="45.53311" lon="2.80326">
        <ele>1637</ele>
        <time>2020-06-05T23:01:09.000Z</time>
      </trkpt>
      <trkpt lat="45.53311" lon="2.80322">
        <ele>1637</ele>
        <time>2020-06-05T23:01:10.000Z</time>
      </trkpt>
      <trkpt lat="45.53313" lon="2.80319">
        <ele>1637</ele>
        <time>2020-06-05T23:01:11.000Z</time>
      </trkpt>
      <trkpt lat="45.53315" lon="2.80317">
        <ele>1637</ele>
        <time>2020-06-05T23:01:12.000Z</time>
      </trkpt>
      <trkpt lat="45.53317" lon="2.80311">
        <ele>1637</ele>
        <time>2020-06-05T23:01:13.000Z</time>
      </trkpt>
      <trkpt lat="45.5332" lon="2.80315">
        <ele>1637</ele>
        <time>2020-06-05T23:01:14.000Z</time>
      </trkpt>
      <trkpt lat="45.5332" lon="2.80322">
        <ele>1637</ele>
        <time>2020-06-05T23:01:15.000Z</time>
      </trkpt>
      <trkpt lat="45.5332" lon="2.8033">
        <ele>1637</ele>
        <time>2020-06-05T23:01:16.000Z</time>
      </trkpt>
      <trkpt lat="45.53321" lon="2.80338">
        <ele>1637</ele>
        <time>2020-06-05T23:01:17.000Z</time>
      </trkpt>
      <trkpt lat="45.53323" lon="2.80348">
        <ele>1637</ele>
        <time>2020-06-05T23:01:18.000Z</time>
      </trkpt>
      <trkpt lat="45.53328" lon="2.80359">
        <ele>1637</ele>
        <time>2020-06-05T23:01:19.000Z</time>
      </trkpt>
      <trkpt lat="45.53332" lon="2.80369">
        <ele>1637</ele>
        <time>2020-06-05T23:01:20.000Z</time>
      </trkpt>
      <trkpt lat="45.53338" lon="2.80375">
        <ele>1637</ele>
        <time>2020-06-05T23:01:21.000Z</time>
      </trkpt>
      <trkpt lat="45.53346" lon="2.80379">
        <ele>1644</ele>
        <time>2020-06-05T23:01:22.000Z</time>
      </trkpt>
      <trkpt lat="45.53356" lon="2.80378">
        <ele>1644</ele>
        <time>2020-06-05T23:01:23.000Z</time>
      </trkpt>
      <trkpt lat="45.53366" lon="2.80379">
        <ele>1644</ele>
        <time>2020-06-05T23:01:24.000Z</time>
      </trkpt>
      <trkpt lat="45.53375" lon="2.80384">
        <ele>1644</ele>
        <time>2020-06-05T23:01:25.000Z</time>
      </trkpt>
      <trkpt lat="45.5338" lon="2.80388">
        <ele>1601</ele>
        <time>2020-06-05T23:01:26.000Z</time>
      </trkpt>
      <trkpt lat="45.53384" lon="2.8039">
        <ele>1601</ele>
        <time>2020-06-05T23:01:27.000Z</time>
      </trkpt>
      <trkpt lat="45.53384" lon="2.80385">
        <ele>1601</ele>
        <time>2020-06-05T23:01:28.000Z</time>
      </trkpt>
      <trkpt lat="45.53381" lon="2.80376">
        <ele>1601</ele>
        <time>2020-06-05T23:01:29.000Z</time>
      </trkpt>
      <trkpt lat="45.53379" lon="2.80371">
        <ele>1584</ele>
        <time>2020-06-05T23:01:30.000Z</time>
      </trkpt>
      <trkpt lat="45.53376" lon="2.80363">
        <ele>1584</ele>
        <time>2020-06-05T23:01:31.000Z</time>
      </trkpt>
      <trkpt lat="45.53376" lon="2.80358">
        <ele>1584</ele>
        <time>2020-06-05T23:01:32.000Z</time>
      </trkpt>
      <trkpt lat="45.53379" lon="2.80354">
        <ele>1584</ele>
        <time>2020-06-05T23:01:33.000Z</time>
      </trkpt>
      <trkpt lat="45.53387" lon="2.80345">
        <ele>1584</ele>
        <time>2020-06-05T23:01:34.000Z</time>
      </trkpt>
      <trkpt lat="45.53396" lon="2.8033">
        <ele>1584</ele>
        <time>2020-06-05T23:01:35.000Z</time>
      </trkpt>
      <trkpt lat="45.53404" lon="2.80323">
        <ele>1584</ele>
        <time>2020-06-05T23:01:36.000Z</time>
      </trkpt>
      <trkpt lat="45.53411" lon="2.80319">
        <ele>1584</ele>
        <time>2020-06-05T23:01:37.000Z</time>
      </trkpt>
      <trkpt lat="45.53415" lon="2.80313">
        <ele>1584</ele>
        <time>2020-06-05T23:01:38.000Z</time>
      </trkpt>
      <trkpt lat="45.53421" lon="2.80309">
        <ele>1584</ele>
        <time>2020-06-05T23:01:39.000Z</time>
      </trkpt>
      <trkpt lat="45.53426" lon="2.80305">
        <ele>1584</ele>
        <time>2020-06-05T23:01:40.000Z</time>
      </trkpt>
      <trkpt lat="45.5343" lon="2.80306">
        <ele>1584</ele>
        <time>2020-06-05T23:01:41.000Z</time>
      </trkpt>
      <trkpt lat="45.5343" lon="2.80315">
        <ele>1584</ele>
        <time>2020-06-05T23:01:42.000Z</time>
      </trkpt>
      <trkpt lat="45.53431" lon="2.80324">
        <ele>1584</ele>
        <time>2020-06-05T23:01:43.000Z</time>
      </trkpt>
      <trkpt lat="45.53433" lon="2.80337">
        <ele>1584</ele>
        <time>2020-06-05T23:01:44.000Z</time>
      </trkpt>
      <trkpt lat="45.53435" lon="2.80346">
        <ele>1584</ele>
        <time>2020-06-05T23:01:45.000Z</time>
      </trkpt>
      <trkpt lat="45.53436" lon="2.80347">
        <ele>1584</ele>
        <time>2020-06-05T23:01:46.000Z</time>
      </trkpt>
      <trkpt lat="45.53441" lon="2.80354">
        <ele>1584</ele>
        <time>2020-06-05T23:01:47.000Z</time>
      </trkpt>
      <trkpt lat="45.53446" lon="2.80361">
        <ele>1584</ele>
        <time>2020-06-05T23:01:48.000Z</time>
      </trkpt>
      <trkpt lat="45.53451" lon="2.80369">
        <ele>1584</ele>
        <time>2020-06-05T23:01:49.000Z</time>
      </trkpt>
      <trkpt lat="45.53456" lon="2.80368">
        <ele>1584</ele>
        <time>2020-06-05T23:01:50.000Z</time>
      </trkpt>
      <trkpt lat="45.53458" lon="2.80363">
        <ele>1584</ele>
        <time>2020-06-05T23:01:51.000Z</time>
      </trkpt>
      <trkpt lat="45.53461" lon="2.80351">
        <ele>1562</ele>
        <time>2020-06-05T23:01:52.000Z</time>
      </trkpt>
      <trkpt lat="45.53473" lon="2.80338">
        <ele>1562</ele>
        <time>2020-06-05T23:01:53.000Z</time>
      </trkpt>
      <trkpt lat="45.5348" lon="2.80337">
        <ele>1562</ele>
        <time>2020-06-05T23:01:54.000Z</time>
      </trkpt>
      <trkpt lat="45.53487" lon="2.80348">
        <ele>1562</ele>
        <time>2020-06-05T23:01:55.000Z</time>
      </trkpt>
      <trkpt lat="45.53495" lon="2.8036">
        <ele>1562</ele>
        <time>2020-06-05T23:01:56.000Z</time>
      </trkpt>
      <trkpt lat="45.5351" lon="2.80371">
        <ele>1562</ele>
        <time>2020-06-05T23:01:57.000Z</time>
      </trkpt>
      <trkpt lat="45.53525" lon="2.80382">
        <ele>1560</ele>
        <time>2020-06-05T23:01:58.000Z</time>
      </trkpt>
      <trkpt lat="45.53541" lon="2.80382">
        <ele>1560</ele>
        <time>2020-06-05T23:01:59.000Z</time>
      </trkpt>
      <trkpt lat="45.53562" lon="2.80389">
        <ele>1534</ele>
        <time>2020-06-05T23:02:00.000Z</time>
      </trkpt>
      <trkpt lat="45.53578" lon="2.80399">
        <ele>1534</ele>
        <time>2020-06-05T23:02:01.000Z</time>
      </trkpt>
      <trkpt lat="45.53585" lon="2.80418">
        <ele>1534</ele>
        <time>2020-06-05T23:02:02.000Z</time>
      </trkpt>
      <trkpt lat="45.53594" lon="2.80435">
        <ele>1534</ele>
        <time>2020-06-05T23:02:03.000Z</time>
      </trkpt>
      <trkpt lat="45.53606" lon="2.80453">
        <ele>1534</ele>
        <time>2020-06-05T23:02:04.000Z</time>
      </trkpt>
      <trkpt lat="45.5362" lon="2.80479">
        <ele>1531</ele>
        <time>2020-06-05T23:02:05.000Z</time>
      </trkpt>
      <trkpt lat="45.5362" lon="2.80479">
        <ele>1531</ele>
        <time>2020-06-05T23:02:06.000Z</time>
      </trkpt>
      <trkpt lat="45.53635" lon="2.80498">
        <ele>1511</ele>
        <time>2020-06-05T23:02:07.000Z</time>
      </trkpt>
      <trkpt lat="45.53642" lon="2.8051">
        <ele>1511</ele>
        <time>2020-06-05T23:02:08.000Z</time>
      </trkpt>
      <trkpt lat="45.53648" lon="2.8052">
        <ele>1511</ele>
        <time>2020-06-05T23:02:09.000Z</time>
      </trkpt>
      <trkpt lat="45.53652" lon="2.80532">
        <ele>1511</ele>
        <time>2020-06-05T23:02:10.000Z</time>
      </trkpt>
      <trkpt lat="45.53667" lon="2.80556">
        <ele>1506</ele>
        <time>2020-06-05T23:02:11.000Z</time>
      </trkpt>
      <trkpt lat="45.53683" lon="2.80582">
        <ele>1506</ele>
        <time>2020-06-05T23:02:12.000Z</time>
      </trkpt>
      <trkpt lat="45.53694" lon="2.806">
        <ele>1506</ele>
        <time>2020-06-05T23:02:13.000Z</time>
      </trkpt>
      <trkpt lat="45.53706" lon="2.80621">
        <ele>1506</ele>
        <time>2020-06-05T23:02:14.000Z</time>
      </trkpt>
      <trkpt lat="45.53717" lon="2.80635">
        <ele>1480</ele>
        <time>2020-06-05T23:02:15.000Z</time>
      </trkpt>
      <trkpt lat="45.53729" lon="2.80645">
        <ele>1480</ele>
        <time>2020-06-05T23:02:16.000Z</time>
      </trkpt>
      <trkpt lat="45.53738" lon="2.80649">
        <ele>1480</ele>
        <time>2020-06-05T23:02:17.000Z</time>
      </trkpt>
      <trkpt lat="45.53755" lon="2.80658">
        <ele>1480</ele>
        <time>2020-06-05T23:02:18.000Z</time>
      </trkpt>
      <trkpt lat="45.53768" lon="2.80665">
        <ele>1480</ele>
        <time>2020-06-05T23:02:19.000Z</time>
      </trkpt>
      <trkpt lat="45.53781" lon="2.80667">
        <ele>1480</ele>
        <time>2020-06-05T23:02:20.000Z</time>
      </trkpt>
      <trkpt lat="45.53793" lon="2.80669">
        <ele>1469</ele>
        <time>2020-06-05T23:02:21.000Z</time>
      </trkpt>
      <trkpt lat="45.53813" lon="2.8067">
        <ele>1469</ele>
        <time>2020-06-05T23:02:22.000Z</time>
      </trkpt>
      <trkpt lat="45.5383" lon="2.80674">
        <ele>1469</ele>
        <time>2020-06-05T23:02:23.000Z</time>
      </trkpt>
      <trkpt lat="45.53847" lon="2.80677">
        <ele>1469</ele>
        <time>2020-06-05T23:02:24.000Z</time>
      </trkpt>
      <trkpt lat="45.53863" lon="2.80686">
        <ele>1469</ele>
        <time>2020-06-05T23:02:25.000Z</time>
      </trkpt>
      <trkpt lat="45.53882" lon="2.80692">
        <ele>1456</ele>
        <time>2020-06-05T23:02:26.000Z</time>
      </trkpt>
      <trkpt lat="45.53897" lon="2.80701">
        <ele>1456</ele>
        <time>2020-06-05T23:02:27.000Z</time>
      </trkpt>
      <trkpt lat="45.53926" lon="2.8072">
        <ele>1450</ele>
        <time>2020-06-05T23:02:28.000Z</time>
      </trkpt>
      <trkpt lat="45.53952" lon="2.80728">
        <ele>1450</ele>
        <time>2020-06-05T23:02:29.000Z</time>
      </trkpt>
      <trkpt lat="45.53963" lon="2.80735">
        <ele>1436</ele>
        <time>2020-06-05T23:02:30.000Z</time>
      </trkpt>
      <trkpt lat="45.53971" lon="2.80747">
        <ele>1436</ele>
        <time>2020-06-05T23:02:31.000Z</time>
      </trkpt>
      <trkpt lat="45.53974" lon="2.80752">
        <ele>1436</ele>
        <time>2020-06-05T23:02:32.000Z</time>
      </trkpt>
      <trkpt lat="45.53985" lon="2.80761">
        <ele>1436</ele>
        <time>2020-06-05T23:02:33.000Z</time>
      </trkpt>
      <trkpt lat="45.53996" lon="2.80768">
        <ele>1436</ele>
        <time>2020-06-05T23:02:34.000Z</time>
      </trkpt>
      <trkpt lat="45.54007" lon="2.80771">
        <ele>1436</ele>
        <time>2020-06-05T23:02:35.000Z</time>
      </trkpt>
      <trkpt lat="45.54029" lon="2.80766">
        <ele>1436</ele>
        <time>2020-06-05T23:02:36.000Z</time>
      </trkpt>
      <trkpt lat="45.5404" lon="2.8076">
        <ele>1436</ele>
        <time>2020-06-05T23:02:37.000Z</time>
      </trkpt>
      <trkpt lat="45.54053" lon="2.8075">
        <ele>1428</ele>
        <time>2020-06-05T23:02:38.000Z</time>
      </trkpt>
      <trkpt lat="45.54065" lon="2.80748">
        <ele>1428</ele>
        <time>2020-06-05T23:02:39.000Z</time>
      </trkpt>
      <trkpt lat="45.54085" lon="2.80743">
        <ele>1428</ele>
        <time>2020-06-05T23:02:40.000Z</time>
      </trkpt>
      <trkpt lat="45.54115" lon="2.80731">
        <ele>1428</ele>
        <time>2020-06-05T23:02:41.000Z</time>
      </trkpt>
      <trkpt lat="45.54135" lon="2.80725">
        <ele>1416</ele>
        <time>2020-06-05T23:02:42.000Z</time>
      </trkpt>
      <trkpt lat="45.5416" lon="2.8071">
        <ele>1416</ele>
        <time>2020-06-05T23:02:43.000Z</time>
      </trkpt>
      <trkpt lat="45.54171" lon="2.80711">
        <ele>1416</ele>
        <time>2020-06-05T23:02:44.000Z</time>
      </trkpt>
      <trkpt lat="45.5419" lon="2.80712">
        <ele>1416</ele>
        <time>2020-06-05T23:02:45.000Z</time>
      </trkpt>
      <trkpt lat="45.542" lon="2.80715">
        <ele>1416</ele>
        <time>2020-06-05T23:02:46.000Z</time>
      </trkpt>
      <trkpt lat="45.54208" lon="2.8072">
        <ele>1416</ele>
        <time>2020-06-05T23:02:47.000Z</time>
      </trkpt>
      <trkpt lat="45.5422" lon="2.8073">
        <ele>1387</ele>
        <time>2020-06-05T23:02:48.000Z</time>
      </trkpt>
      <trkpt lat="45.54225" lon="2.80739">
        <ele>1387</ele>
        <time>2020-06-05T23:02:49.000Z</time>
      </trkpt>
      <trkpt lat="45.54238" lon="2.80756">
        <ele>1387</ele>
        <time>2020-06-05T23:02:50.000Z</time>
      </trkpt>
      <trkpt lat="45.54244" lon="2.80775">
        <ele>1387</ele>
        <time>2020-06-05T23:02:51.000Z</time>
      </trkpt>
      <trkpt lat="45.54246" lon="2.8081">
        <ele>1382</ele>
        <time>2020-06-05T23:02:52.000Z</time>
      </trkpt>
      <trkpt lat="45.5425" lon="2.80834">
        <ele>1382</ele>
        <time>2020-06-05T23:02:53.000Z</time>
      </trkpt>
      <trkpt lat="45.54256" lon="2.80861">
        <ele>1382</ele>
        <time>2020-06-05T23:02:54.000Z</time>
      </trkpt>
      <trkpt lat="45.54249" lon="2.80865">
        <ele>1382</ele>
        <time>2020-06-05T23:02:55.000Z</time>
      </trkpt>
      <trkpt lat="45.5425" lon="2.80872">
        <ele>1382</ele>
        <time>2020-06-05T23:02:56.000Z</time>
      </trkpt>
      <trkpt lat="45.54252" lon="2.8088">
        <ele>1371</ele>
        <time>2020-06-05T23:02:57.000Z</time>
      </trkpt>
      <trkpt lat="45.54254" lon="2.80888">
        <ele>1371</ele>
        <time>2020-06-05T23:02:58.000Z</time>
      </trkpt>
      <trkpt lat="45.54254" lon="2.80895">
        <ele>1371</ele>
        <time>2020-06-05T23:02:59.000Z</time>
      </trkpt>
      <trkpt lat="45.54254" lon="2.80902">
        <ele>1371</ele>
        <time>2020-06-05T23:03:00.000Z</time>
      </trkpt>
      <trkpt lat="45.54255" lon="2.80908">
        <ele>1371</ele>
        <time>2020-06-05T23:03:01.000Z</time>
      </trkpt>
      <trkpt lat="45.54255" lon="2.80915">
        <ele>1371</ele>
        <time>2020-06-05T23:03:02.000Z</time>
      </trkpt>
      <trkpt lat="45.54257" lon="2.80922">
        <ele>1371</ele>
        <time>2020-06-05T23:03:03.000Z</time>
      </trkpt>
      <trkpt lat="45.54258" lon="2.80928">
        <ele>1371</ele>
        <time>2020-06-05T23:03:04.000Z</time>
      </trkpt>
      <trkpt lat="45.5426" lon="2.80936">
        <ele>1371</ele>
        <time>2020-06-05T23:03:05.000Z</time>
      </trkpt>
      <trkpt lat="45.54262" lon="2.80942">
        <ele>1371</ele>
        <time>2020-06-05T23:03:06.000Z</time>
      </trkpt>
      <trkpt lat="45.54262" lon="2.8095">
        <ele>1371</ele>
        <time>2020-06-05T23:03:07.000Z</time>
      </trkpt>
      <trkpt lat="45.54267" lon="2.80955">
        <ele>1371</ele>
        <time>2020-06-05T23:03:08.000Z</time>
      </trkpt>
      <trkpt lat="45.5427" lon="2.80961">
        <ele>1368</ele>
        <time>2020-06-05T23:03:09.000Z</time>
      </trkpt>
      <trkpt lat="45.54272" lon="2.80968">
        <ele>1368</ele>
        <time>2020-06-05T23:03:10.000Z</time>
      </trkpt>
      <trkpt lat="45.54273" lon="2.80974">
        <ele>1368</ele>
        <time>2020-06-05T23:03:11.000Z</time>
      </trkpt>
      <trkpt lat="45.54275" lon="2.8098">
        <ele>1368</ele>
        <time>2020-06-05T23:03:12.000Z</time>
      </trkpt>
      <trkpt lat="45.54277" lon="2.80987">
        <ele>1368</ele>
        <time>2020-06-05T23:03:13.000Z</time>
      </trkpt>
      <trkpt lat="45.54278" lon="2.80995">
        <ele>1368</ele>
        <time>2020-06-05T23:03:14.000Z</time>
      </trkpt>
      <trkpt lat="45.54281" lon="2.81001">
        <ele>1368</ele>
        <time>2020-06-05T23:03:15.000Z</time>
      </trkpt>
      <trkpt lat="45.54283" lon="2.81007">
        <ele>1368</ele>
        <time>2020-06-05T23:03:16.000Z</time>
      </trkpt>
      <trkpt lat="45.54285" lon="2.81013">
        <ele>1368</ele>
        <time>2020-06-05T23:03:17.000Z</time>
      </trkpt>
      <trkpt lat="45.54287" lon="2.81019">
        <ele>1368</ele>
        <time>2020-06-05T23:03:18.000Z</time>
      </trkpt>
      <trkpt lat="45.54288" lon="2.81026">
        <ele>1368</ele>
        <time>2020-06-05T23:03:19.000Z</time>
      </trkpt>
      <trkpt lat="45.54291" lon="2.81031">
        <ele>1368</ele>
        <time>2020-06-05T23:03:20.000Z</time>
      </trkpt>
      <trkpt lat="45.54294" lon="2.81038">
        <ele>1359</ele>
        <time>2020-06-05T23:03:21.000Z</time>
      </trkpt>
      <trkpt lat="45.54296" lon="2.81044">
        <ele>1347</ele>
        <time>2020-06-05T23:03:22.000Z</time>
      </trkpt>
      <trkpt lat="45.54299" lon="2.81051">
        <ele>1347</ele>
        <time>2020-06-05T23:03:23.000Z</time>
      </trkpt>
      <trkpt lat="45.54299" lon="2.81051">
        <ele>1347</ele>
        <time>2020-06-05T23:03:24.000Z</time>
      </trkpt>
      <trkpt lat="45.54307" lon="2.81087">
        <ele>1347</ele>
        <time>2020-06-05T23:03:25.000Z</time>
      </trkpt>
      <trkpt lat="45.54318" lon="2.81131">
        <ele>1338</ele>
        <time>2020-06-05T23:03:26.000Z</time>
      </trkpt>
      <trkpt lat="45.54323" lon="2.81176">
        <ele>1338</ele>
        <time>2020-06-05T23:03:27.000Z</time>
      </trkpt>
      <trkpt lat="45.54323" lon="2.81203">
        <ele>1338</ele>
        <time>2020-06-05T23:03:28.000Z</time>
      </trkpt>
      <trkpt lat="45.54322" lon="2.81206">
        <ele>1338</ele>
        <time>2020-06-05T23:03:29.000Z</time>
      </trkpt>
      <trkpt lat="45.54314" lon="2.81224">
        <ele>1331</ele>
        <time>2020-06-05T23:03:30.000Z</time>
      </trkpt>
      <trkpt lat="45.54313" lon="2.81226">
        <ele>1331</ele>
        <time>2020-06-05T23:03:31.000Z</time>
      </trkpt>
      <trkpt lat="45.54304" lon="2.81246">
        <ele>1331</ele>
        <time>2020-06-05T23:03:32.000Z</time>
      </trkpt>
      <trkpt lat="45.54296" lon="2.81258">
        <ele>1331</ele>
        <time>2020-06-05T23:03:33.000Z</time>
      </trkpt>
      <trkpt lat="45.54291" lon="2.81261">
        <ele>1336</ele>
        <time>2020-06-05T23:03:34.000Z</time>
      </trkpt>
      <trkpt lat="45.54277" lon="2.81269">
        <ele>1336</ele>
        <time>2020-06-05T23:03:35.000Z</time>
      </trkpt>
      <trkpt lat="45.54263" lon="2.81275">
        <ele>1336</ele>
        <time>2020-06-05T23:03:36.000Z</time>
      </trkpt>
      <trkpt lat="45.54256" lon="2.81283">
        <ele>1336</ele>
        <time>2020-06-05T23:03:37.000Z</time>
      </trkpt>
      <trkpt lat="45.54254" lon="2.81283">
        <ele>1336</ele>
        <time>2020-06-05T23:03:38.000Z</time>
      </trkpt>
      <trkpt lat="45.54254" lon="2.81283">
        <ele>1336</ele>
        <time>2020-06-05T23:03:39.000Z</time>
      </trkpt>
      <trkpt lat="45.54249" lon="2.81283">
        <ele>1336</ele>
        <time>2020-06-05T23:03:40.000Z</time>
      </trkpt>
      <trkpt lat="45.5424" lon="2.81287">
        <ele>1336</ele>
        <time>2020-06-05T23:03:41.000Z</time>
      </trkpt>
      <trkpt lat="45.54228" lon="2.81294">
        <ele>1325</ele>
        <time>2020-06-05T23:03:42.000Z</time>
      </trkpt>
      <trkpt lat="45.54224" lon="2.81298">
        <ele>1325</ele>
        <time>2020-06-05T23:03:43.000Z</time>
      </trkpt>
      <trkpt lat="45.54217" lon="2.81305">
        <ele>1325</ele>
        <time>2020-06-05T23:03:44.000Z</time>
      </trkpt>
      <trkpt lat="45.54209" lon="2.81319">
        <ele>1325</ele>
        <time>2020-06-05T23:03:45.000Z</time>
      </trkpt>
      <trkpt lat="45.542" lon="2.81314">
        <ele>1341</ele>
        <time>2020-06-05T23:03:46.000Z</time>
      </trkpt>
      <trkpt lat="45.542" lon="2.81316">
        <ele>1341</ele>
        <time>2020-06-05T23:03:47.000Z</time>
      </trkpt>
      <trkpt lat="45.54198" lon="2.81322">
        <ele>1341</ele>
        <time>2020-06-05T23:03:48.000Z</time>
      </trkpt>
      <trkpt lat="45.54195" lon="2.81327">
        <ele>1341</ele>
        <time>2020-06-05T23:03:49.000Z</time>
      </trkpt>
      <trkpt lat="45.54193" lon="2.81333">
        <ele>1341</ele>
        <time>2020-06-05T23:03:50.000Z</time>
      </trkpt>
      <trkpt lat="45.54191" lon="2.8134">
        <ele>1341</ele>
        <time>2020-06-05T23:03:51.000Z</time>
      </trkpt>
      <trkpt lat="45.5419" lon="2.81346">
        <ele>1341</ele>
        <time>2020-06-05T23:03:52.000Z</time>
      </trkpt>
      <trkpt lat="45.54186" lon="2.81352">
        <ele>1341</ele>
        <time>2020-06-05T23:03:53.000Z</time>
      </trkpt>
      <trkpt lat="45.5419" lon="2.81373">
        <ele>1341</ele>
        <time>2020-06-05T23:03:54.000Z</time>
      </trkpt>
      <trkpt lat="45.54189" lon="2.81376">
        <ele>1334</ele>
        <time>2020-06-05T23:03:55.000Z</time>
      </trkpt>
      <trkpt lat="45.54188" lon="2.81409">
        <ele>1334</ele>
        <time>2020-06-05T23:03:56.000Z</time>
      </trkpt>
      <trkpt lat="45.5419" lon="2.81416">
        <ele>1334</ele>
        <time>2020-06-05T23:03:57.000Z</time>
      </trkpt>
      <trkpt lat="45.5419" lon="2.81416">
        <ele>1334</ele>
        <time>2020-06-05T23:03:58.000Z</time>
      </trkpt>
      <trkpt lat="45.5419" lon="2.81415">
        <ele>1334</ele>
        <time>2020-06-05T23:03:59.000Z</time>
      </trkpt>
      <trkpt lat="45.54193" lon="2.81421">
        <ele>1334</ele>
        <time>2020-06-05T23:04:00.000Z</time>
      </trkpt>
      <trkpt lat="45.54196" lon="2.81428">
        <ele>1334</ele>
        <time>2020-06-05T23:04:01.000Z</time>
      </trkpt>
      <trkpt lat="45.542" lon="2.81435">
        <ele>1334</ele>
        <time>2020-06-05T23:04:02.000Z</time>
      </trkpt>
      <trkpt lat="45.54205" lon="2.81438">
        <ele>1334</ele>
        <time>2020-06-05T23:04:03.000Z</time>
      </trkpt>
      <trkpt lat="45.54209" lon="2.81443">
        <ele>1320</ele>
        <time>2020-06-05T23:04:04.000Z</time>
      </trkpt>
      <trkpt lat="45.54211" lon="2.81449">
        <ele>1320</ele>
        <time>2020-06-05T23:04:05.000Z</time>
      </trkpt>
      <trkpt lat="45.54212" lon="2.81456">
        <ele>1320</ele>
        <time>2020-06-05T23:04:06.000Z</time>
      </trkpt>
      <trkpt lat="45.54213" lon="2.81462">
        <ele>1318</ele>
        <time>2020-06-05T23:04:07.000Z</time>
      </trkpt>
      <trkpt lat="45.54213" lon="2.81463">
        <ele>1318</ele>
        <time>2020-06-05T23:04:08.000Z</time>
      </trkpt>
      <trkpt lat="45.54212" lon="2.8147">
        <ele>1318</ele>
        <time>2020-06-05T23:04:09.000Z</time>
      </trkpt>
      <trkpt lat="45.5421" lon="2.81477">
        <ele>1318</ele>
        <time>2020-06-05T23:04:10.000Z</time>
      </trkpt>
      <trkpt lat="45.54205" lon="2.81478">
        <ele>1332</ele>
        <time>2020-06-05T23:04:11.000Z</time>
      </trkpt>
      <trkpt lat="45.54208" lon="2.81486">
        <ele>1332</ele>
        <time>2020-06-05T23:04:12.000Z</time>
      </trkpt>
      <trkpt lat="45.54207" lon="2.81495">
        <ele>1332</ele>
        <time>2020-06-05T23:04:13.000Z</time>
      </trkpt>
      <trkpt lat="45.54202" lon="2.81493">
        <ele>1332</ele>
        <time>2020-06-05T23:04:14.000Z</time>
      </trkpt>
      <trkpt lat="45.54207" lon="2.815">
        <ele>1332</ele>
        <time>2020-06-05T23:04:15.000Z</time>
      </trkpt>
      <trkpt lat="45.54211" lon="2.81504">
        <ele>1318</ele>
        <time>2020-06-05T23:04:16.000Z</time>
      </trkpt>
      <trkpt lat="45.5421" lon="2.81513">
        <ele>1318</ele>
        <time>2020-06-05T23:04:17.000Z</time>
      </trkpt>
      <trkpt lat="45.5421" lon="2.81513">
        <ele>1318</ele>
        <time>2020-06-05T23:04:18.000Z</time>
      </trkpt>
      <trkpt lat="45.5421" lon="2.81514">
        <ele>1318</ele>
        <time>2020-06-05T23:04:19.000Z</time>
      </trkpt>
      <trkpt lat="45.54205" lon="2.81581">
        <ele>1330</ele>
        <time>2020-06-05T23:04:20.000Z</time>
      </trkpt>
      <trkpt lat="45.54199" lon="2.81617">
        <ele>1330</ele>
        <time>2020-06-05T23:04:21.000Z</time>
      </trkpt>
      <trkpt lat="45.54197" lon="2.81625">
        <ele>1330</ele>
        <time>2020-06-05T23:04:22.000Z</time>
      </trkpt>
      <trkpt lat="45.54189" lon="2.81644">
        <ele>1327</ele>
        <time>2020-06-05T23:04:23.000Z</time>
      </trkpt>
      <trkpt lat="45.5419" lon="2.81661">
        <ele>1327</ele>
        <time>2020-06-05T23:04:24.000Z</time>
      </trkpt>
      <trkpt lat="45.54199" lon="2.81672">
        <ele>1327</ele>
        <time>2020-06-05T23:04:25.000Z</time>
      </trkpt>
    </trkseg>
  </trk>
</gpx>